Pagina principale
METAR-TAF:

METAR-TAF

Aeroporti :

Verona, Italia

Aeroporto di Verona-Villafranca

latitudine: 45-23N, longitudine: 010-52E, altezza: 67 m

Osservazione

Il bollettino è stato emesso 22 minuti fa, alle 06:20 UTC
Vento 2 kt da direzioni variabili
Temperature 19°C
Umidità 73%
Pressione 1005 hPa
Visibilità 10 km o più
Nubi sparse ad un'altezza di 6000 ft

METAR: LIPX 260620Z VRB02KT 9999 SCT060 19/14 Q1005

Ora: 08:42 (06:42 UTC)

Previsione

Il bollettino è stato emesso 1 ora e 42 minuti fa, alle 05:00 UTC
Previsione valida dal 26 alle 06 UTC al 26 alle 15 UTC
Vento 8 kt da ovest/sud-ovest
Visibilità 10 km o più
Nubi sparse ad un'altezza di 5000 ft

TAF: LIPX 260500Z 2606/2615 24008KT 9999 SCT050

Osservazioni e previsioni meteorologiche di più di 4000 aeroporti (messaggi METAR e TAF).

Le stazioni disponibili sono rappresentate dai dischi gialli e rossi sulla carta.

Puntare il mouse per vedere il nome della stazione.

Clicca sopra per visualizzare le osservazioni e previsioni meteorologiche.

Per cambiare la mappa : fare clic sui pulsanti verdi con una croce nera per ingrandire, il pulsante verde con un trattino per diminuire, o sulla freccia verde per le mappe adiacenti.


METAR-TAF: